Time;durP1;ratioP1;P1;durP2;ratioP2;P2;SDS_P1;SDS_P2;PMS_P1;PMS_P2;Temp;Humidity;BMP_temperature;BMP_pressure;BME280_temperature;BME280_humidity;BME280_pressure;Samples;Min_cycle;Max_cycle;Signal;HPM_P1;HPM_P2
2023/04/16 00:00:47;;;;;;;5.22;2.50;;;;;;;;;;4815949;29;20055;-66
2023/04/16 00:03:17;;;;;;;6.63;2.28;;;;;;;;;;4839438;29;20068;-64
2023/04/16 00:05:48;;;;;;;5.57;2.28;;;;;;;;;;4870628;29;20097;-64
2023/04/16 00:08:18;;;;;;;5.50;2.50;;;;;;;;;;4866793;29;20430;-64
2023/04/16 00:10:48;;;;;;;12.63;2.63;;;;;;;;;;4859506;29;20060;-64
2023/04/16 00:13:18;;;;;;;5.95;1.83;;;;;;;;;;4875043;29;20052;-64
2023/04/16 00:15:48;;;;;;;4.22;2.00;;;;;;;;;;4877825;29;20405;-64
2023/04/16 00:18:20;;;;;;;2.92;1.45;;;;;;;;;;4847915;29;20055;-64
2023/04/16 00:20:52;;;;;;;4.50;1.85;;;;;;;;;;4893462;29;20069;-64
2023/04/16 00:23:24;;;;;;;4.63;2.00;;;;;;;;;;4893595;29;20064;-64
2023/04/16 00:25:56;;;;;;;6.28;1.80;;;;;;;;;;4893403;29;20067;-64
2023/04/16 00:28:26;;;;;;;4.25;1.60;;;;;;;;;;4877937;29;20057;-64
2023/04/16 00:30:56;;;;;;;5.75;1.88;;;;;;;;;;4828850;29;20042;-64
2023/04/16 00:33:28;;;;;;;3.10;1.80;;;;;;;;;;4892493;29;20052;-64
2023/04/16 00:36:01;;;;;;;5.07;1.60;;;;;;;;;;4862778;29;20057;-64
2023/04/16 00:38:31;;;;;;;7.25;2.10;;;;;;;;;;4919135;29;20067;-64
2023/04/16 00:41:01;;;;;;;5.70;2.10;;;;;;;;;;4910027;29;20571;-63
2023/04/16 00:43:31;;;;;;;8.00;2.50;;;;;;;;;;4901151;29;20043;-64
2023/04/16 00:46:04;;;;;;;6.22;2.60;;;;;;;;;;4908931;29;20403;-64
2023/04/16 00:48:36;;;;;;;6.13;2.25;;;;;;;;;;4928253;29;20171;-64
2023/04/16 00:51:08;;;;;;;5.07;2.10;;;;;;;;;;4930771;29;20066;-64
2023/04/16 00:53:38;;;;;;;9.55;3.03;;;;;;;;;;4931034;29;20055;-64
2023/04/16 00:56:10;;;;;;;5.70;2.47;;;;;;;;;;4880765;29;20056;-65
2023/04/16 00:58:40;;;;;;;5.30;2.72;;;;;;;;;;4874237;29;20061;-64
2023/04/16 01:01:10;;;;;;;11.88;2.80;;;;;;;;;;4874541;29;20057;-64
2023/04/16 01:03:45;;;;;;;8.27;3.63;;;;;;;;;;4855555;29;20081;-65
2023/04/16 01:06:18;;;;;;;7.03;3.05;;;;;;;;;;4847344;29;20053;-64
2023/04/16 01:08:49;;;;;;;7.35;3.20;;;;;;;;;;4829421;29;20050;-64
2023/04/16 01:11:19;;;;;;;7.28;3.17;;;;;;;;;;4851933;29;20062;-64
2023/04/16 01:13:50;;;;;;;9.43;3.30;;;;;;;;;;4859805;29;20061;-65
2023/04/16 01:16:20;;;;;;;8.45;3.08;;;;;;;;;;4869863;29;20057;-63
2023/04/16 01:18:50;;;;;;;6.47;2.30;;;;;;;;;;4877972;29;20069;-63
2023/04/16 01:21:20;;;;;;;9.60;3.13;;;;;;;;;;4877763;29;20068;-64
2023/04/16 01:23:50;;;;;;;8.63;2.90;;;;;;;;;;4878070;29;20765;-63
2023/04/16 01:26:20;;;;;;;10.45;4.20;;;;;;;;;;4856820;29;20077;-63
2023/04/16 01:28:50;;;;;;;5.63;2.70;;;;;;;;;;4864991;29;20509;-63
2023/04/16 01:31:20;;;;;;;9.68;3.03;;;;;;;;;;4877844;29;20056;-64
2023/04/16 01:34:02;;;;;;;7.88;2.40;;;;;;;;;;4872556;29;20045;-64
2023/04/16 01:36:33;;;;;;;13.13;2.92;;;;;;;;;;4839537;29;20406;-64
2023/04/16 01:39:03;;;;;;;7.10;2.50;;;;;;;;;;4877692;29;20057;-63
2023/04/16 01:41:33;;;;;;;6.75;2.53;;;;;;;;;;4888720;29;20398;-64
2023/04/16 01:44:03;;;;;;;10.38;3.10;;;;;;;;;;4865561;29;20056;-65
2023/04/16 01:46:35;;;;;;;10.60;2.80;;;;;;;;;;4889245;29;20053;-64
2023/04/16 01:49:06;;;;;;;8.68;2.85;;;;;;;;;;4896208;29;20061;-62
2023/04/16 01:51:36;;;;;;;6.63;2.92;;;;;;;;;;4895991;29;20394;-65
2023/04/16 01:54:06;;;;;;;4.63;2.13;;;;;;;;;;4867987;29;20113;-63
2023/04/16 01:56:36;;;;;;;7.43;2.90;;;;;;;;;;4914917;29;20064;-65
2023/04/16 01:59:06;;;;;;;7.57;2.88;;;;;;;;;;4879155;29;20092;-64
2023/04/16 02:01:41;;;;;;;10.65;2.50;;;;;;;;;;4895672;29;20188;-65
2023/04/16 02:04:11;;;;;;;8.20;2.53;;;;;;;;;;4895798;29;20061;-65
2023/04/16 02:06:42;;;;;;;7.22;2.70;;;;;;;;;;4861811;29;20129;-65
2023/04/16 02:09:13;;;;;;;;;;;;;;;;;;4896070;29;20045;-65
2023/04/16 02:11:43;;;;;;;7.80;2.70;;;;;;;;;;4895954;29;19923;-67
2023/04/16 02:14:13;;;;;;;6.97;2.55;;;;;;;;;;4876862;29;20053;-65
2023/04/16 02:16:44;;;;;;;11.52;2.45;;;;;;;;;;4895562;29;20056;-65
2023/04/16 02:19:26;;;;;;;7.25;2.72;;;;;;;;;;4895553;29;20053;-66
2023/04/16 02:21:56;;;;;;;5.88;2.30;;;;;;;;;;4865567;29;20053;-64
2023/04/16 02:24:27;;;;;;;10.18;2.65;;;;;;;;;;4873691;29;20064;-64
2023/04/16 02:26:58;;;;;;;6.45;2.67;;;;;;;;;;4872857;29;20050;-64
2023/04/16 02:29:30;;;;;;;4.75;2.28;;;;;;;;;;4831706;29;20058;-64
2023/04/16 02:32:08;;;;;;;4.53;1.90;;;;;;;;;;4825027;29;20542;-66
2023/04/16 02:34:42;;;;;;;3.80;1.95;;;;;;;;;;4839383;29;20053;-64
2023/04/16 02:37:14;;;;;;;7.30;1.80;;;;;;;;;;4819999;29;20054;-66
2023/04/16 02:39:46;;;;;;;5.07;2.65;;;;;;;;;;4849445;29;20116;-64
2023/04/16 02:42:16;;;;;;;4.78;2.30;;;;;;;;;;4876551;29;20064;-64
2023/04/16 02:44:46;;;;;;;6.40;2.40;;;;;;;;;;4876694;29;20064;-64
2023/04/16 02:47:16;;;;;;;6.75;2.38;;;;;;;;;;4845939;29;20061;-64
2023/04/16 02:49:46;;;;;;;5.22;2.30;;;;;;;;;;4876523;29;20078;-64
2023/04/16 02:52:16;;;;;;;5.18;2.00;;;;;;;;;;4885614;29;20091;-65
2023/04/16 02:54:46;;;;;;;8.18;2.25;;;;;;;;;;4888345;29;20061;-64
2023/04/16 02:57:16;;;;;;;5.38;2.30;;;;;;;;;;4892288;29;20557;-64
2023/04/16 02:59:46;;;;;;;4.03;2.10;;;;;;;;;;4875974;29;20060;-64
2023/04/16 03:02:16;;;;;;;5.00;2.10;;;;;;;;;;4894687;29;20049;-64
2023/04/16 03:04:46;;;;;;;5.57;2.22;;;;;;;;;;4878824;29;20498;-65
2023/04/16 03:07:17;;;;;;;7.47;2.00;;;;;;;;;;4894881;29;20064;-64
2023/04/16 03:09:47;;;;;;;5.57;2.30;;;;;;;;;;4903710;29;20052;-64
2023/04/16 03:12:17;;;;;;;7.05;2.22;;;;;;;;;;4903162;29;20063;-64
2023/04/16 03:14:47;;;;;;;4.70;2.42;;;;;;;;;;4930809;29;20063;-64
2023/04/16 03:17:17;;;;;;;6.07;2.50;;;;;;;;;;4951468;29;20070;-64
2023/04/16 03:19:49;;;;;;;6.10;1.98;;;;;;;;;;4932362;29;20055;-64
2023/04/16 03:22:20;;;;;;;6.30;2.75;;;;;;;;;;4916446;29;20058;-64
2023/04/16 03:24:50;;;;;;;5.05;2.42;;;;;;;;;;4932389;29;20067;-64
2023/04/16 03:27:20;;;;;;;4.95;2.15;;;;;;;;;;4875536;29;20060;-64
2023/04/16 03:29:50;;;;;;;6.63;2.42;;;;;;;;;;4848443;29;20632;-65
2023/04/16 03:32:20;;;;;;;5.65;2.10;;;;;;;;;;4837789;29;20057;-64
2023/04/16 03:34:50;;;;;;;9.02;2.40;;;;;;;;;;4856962;29;20061;-64
2023/04/16 03:37:20;;;;;;;8.48;2.92;;;;;;;;;;4856966;29;20056;-64
2023/04/16 03:39:51;;;;;;;7.18;2.53;;;;;;;;;;4801846;29;20170;-64
2023/04/16 03:42:22;;;;;;;5.60;2.35;;;;;;;;;;4831197;29;20050;-64
2023/04/16 03:44:52;;;;;;;7.20;2.08;;;;;;;;;;4838526;29;20058;-64
2023/04/16 03:47:23;;;;;;;6.10;2.38;;;;;;;;;;4816017;29;20172;-64
2023/04/16 03:49:56;;;;;;;5.97;2.45;;;;;;;;;;4851721;29;20143;-65
2023/04/16 03:52:27;;;;;;;11.85;2.80;;;;;;;;;;4875001;29;20056;-64
2023/04/16 03:54:57;;;;;;;4.80;2.38;;;;;;;;;;4889713;29;20084;-65
2023/04/16 03:57:30;;;;;;;5.35;2.83;;;;;;;;;;4888327;29;20057;-64
2023/04/16 04:00:07;;;;;;;6.80;2.80;;;;;;;;;;4870666;29;20069;-64
2023/04/16 04:02:56;;;;;;;7.10;2.60;;;;;;;;;;4857169;29;20057;-64
2023/04/16 04:05:28;;;;;;;6.85;3.08;;;;;;;;;;4856550;29;20147;-64
2023/04/16 04:07:59;;;;;;;6.05;2.75;;;;;;;;;;4879704;29;20532;-64
2023/04/16 04:10:34;;;;;;;6.68;2.72;;;;;;;;;;4874810;29;20454;-65
2023/04/16 04:13:06;;;;;;;8.80;2.63;;;;;;;;;;4861176;29;20049;-65
2023/04/16 04:15:37;;;;;;;6.70;2.38;;;;;;;;;;4888303;29;20056;-65
2023/04/16 04:18:07;;;;;;;7.13;2.40;;;;;;;;;;4875991;29;20068;-65
2023/04/16 04:20:40;;;;;;;5.63;2.70;;;;;;;;;;4847787;29;20054;-64
2023/04/16 04:23:15;;;;;;;10.13;2.60;;;;;;;;;;4833986;29;20065;-64
2023/04/16 04:25:46;;;;;;;3.90;2.08;;;;;;;;;;4819380;29;20050;-64
2023/04/16 04:28:18;;;;;;;3.80;2.10;;;;;;;;;;4793539;29;20050;-64
2023/04/16 04:30:48;;;;;;;4.25;1.98;;;;;;;;;;4784334;29;20055;-65
2023/04/16 04:33:19;;;;;;;5.88;2.45;;;;;;;;;;4833476;29;20050;-64
2023/04/16 04:35:51;;;;;;;5.28;2.50;;;;;;;;;;4841645;29;20046;-65
2023/04/16 04:38:24;;;;;;;4.45;2.60;;;;;;;;;;4837338;29;20061;-64
2023/04/16 04:40:54;;;;;;;7.45;2.38;;;;;;;;;;4837422;29;20507;-64
2023/04/16 04:43:26;;;;;;;;;;;;;;;;;;4856979;29;20053;-66
2023/04/16 04:45:56;;;;;;;7.53;2.63;;;;;;;;;;4859761;29;19935;-64
2023/04/16 04:48:28;;;;;;;6.47;2.45;;;;;;;;;;4859665;29;20058;-64
2023/04/16 04:50:58;;;;;;;5.80;2.13;;;;;;;;;;4830634;29;20050;-64
2023/04/16 04:53:32;;;;;;;9.45;2.58;;;;;;;;;;4812016;29;20416;-64
2023/04/16 04:56:02;;;;;;;7.00;2.10;;;;;;;;;;4775168;29;20062;-64
2023/04/16 04:58:41;;;;;;;4.90;2.15;;;;;;;;;;4786331;30;20051;-65
2023/04/16 05:01:11;;;;;;;6.07;2.40;;;;;;;;;;4844929;29;20057;-64
2023/04/16 05:03:41;;;;;;;4.00;2.10;;;;;;;;;;4856648;29;20058;-64
2023/04/16 05:06:11;;;;;;;6.63;2.20;;;;;;;;;;4822954;29;20065;-64
2023/04/16 05:08:42;;;;;;;6.68;2.40;;;;;;;;;;4823075;29;20062;-64
2023/04/16 05:11:12;;;;;;;4.80;2.15;;;;;;;;;;4837470;29;20062;-64
2023/04/16 05:13:42;;;;;;;4.30;2.45;;;;;;;;;;4812554;29;20081;-64
2023/04/16 05:16:12;;;;;;;5.82;2.20;;;;;;;;;;4833987;29;20054;-64
2023/04/16 05:18:42;;;;;;;5.13;2.50;;;;;;;;;;4831011;29;20057;-64
2023/04/16 05:21:12;;;;;;;5.53;2.30;;;;;;;;;;4832651;29;20169;-64
2023/04/16 05:23:42;;;;;;;5.78;2.30;;;;;;;;;;4841132;29;20070;-64
2023/04/16 05:26:12;;;;;;;4.93;2.13;;;;;;;;;;4850729;29;20061;-64
2023/04/16 05:28:42;;;;;;;8.55;2.17;;;;;;;;;;4839868;29;20065;-64
2023/04/16 05:31:12;;;;;;;5.30;2.03;;;;;;;;;;4877799;29;20091;-66
2023/04/16 05:33:42;;;;;;;4.97;2.10;;;;;;;;;;4896706;29;20057;-64
2023/04/16 05:36:12;;;;;;;6.38;2.30;;;;;;;;;;4896352;29;20071;-64
2023/04/16 05:38:43;;;;;;;6.28;1.98;;;;;;;;;;4922271;29;20052;-64
2023/04/16 05:41:13;;;;;;;6.03;2.30;;;;;;;;;;4896654;29;20052;-63
2023/04/16 05:43:43;;;;;;;4.38;2.10;;;;;;;;;;4865184;29;20068;-64
2023/04/16 05:46:13;;;;;;;5.13;1.73;;;;;;;;;;4849895;29;20057;-63
2023/04/16 05:48:43;;;;;;;7.40;2.05;;;;;;;;;;4864919;29;20055;-64
2023/04/16 05:51:13;;;;;;;5.00;2.30;;;;;;;;;;4849817;29;20056;-65
2023/04/16 05:53:43;;;;;;;6.10;2.38;;;;;;;;;;4865200;29;20099;-65
2023/04/16 05:56:13;;;;;;;8.43;2.33;;;;;;;;;;4919857;29;20063;-64
2023/04/16 05:58:44;;;;;;;5.93;2.20;;;;;;;;;;4898916;29;20070;-64
2023/04/16 06:01:14;;;;;;;12.02;2.20;;;;;;;;;;4886532;29;20051;-64
2023/04/16 06:03:44;;;;;;;11.02;3.10;;;;;;;;;;4886924;29;20091;-65
2023/04/16 06:06:14;;;;;;;5.55;2.08;;;;;;;;;;4933734;29;20047;-64
2023/04/16 06:08:45;;;;;;;4.82;2.50;;;;;;;;;;4925030;29;20058;-64
2023/04/16 06:11:15;;;;;;;4.40;2.58;;;;;;;;;;4953362;29;20085;-63
2023/04/16 06:13:45;;;;;;;4.13;2.08;;;;;;;;;;4953406;29;20412;-65
2023/04/16 06:16:15;;;;;;;5.90;2.20;;;;;;;;;;4938076;29;20063;-65
2023/04/16 06:18:45;;;;;;;4.03;2.10;;;;;;;;;;4918197;29;20504;-63
2023/04/16 06:21:15;;;;;;;6.90;2.03;;;;;;;;;;4933632;29;20055;-64
2023/04/16 06:23:45;;;;;;;7.07;2.72;;;;;;;;;;4917725;29;20059;-64
2023/04/16 06:26:16;;;;;;;8.52;2.15;;;;;;;;;;4933379;29;20048;-64
2023/04/16 06:28:46;;;;;;;7.68;2.78;;;;;;;;;;4933106;29;20048;-66
2023/04/16 06:31:16;;;;;;;6.97;2.22;;;;;;;;;;4933248;29;20056;-64
2023/04/16 06:33:46;;;;;;;6.95;2.30;;;;;;;;;;4933238;29;20063;-64
2023/04/16 06:36:16;;;;;;;6.18;2.45;;;;;;;;;;4951287;28;20058;-64
2023/04/16 06:38:46;;;;;;;9.15;2.47;;;;;;;;;;4971778;28;20427;-64
2023/04/16 06:41:16;;;;;;;7.82;2.45;;;;;;;;;;4971642;28;20058;-64
2023/04/16 06:43:46;;;;;;;8.07;2.50;;;;;;;;;;4971855;28;20042;-64
2023/04/16 06:46:16;;;;;;;6.30;2.45;;;;;;;;;;4971495;28;20447;-64
2023/04/16 06:48:46;;;;;;;7.78;2.60;;;;;;;;;;4971355;28;20057;-64
2023/04/16 06:51:16;;;;;;;5.20;2.22;;;;;;;;;;4971429;28;20046;-64
2023/04/16 06:53:48;;;;;;;5.50;2.03;;;;;;;;;;4978873;28;20422;-64
2023/04/16 06:56:18;;;;;;;5.05;2.20;;;;;;;;;;4991078;28;20073;-63
2023/04/16 06:58:48;;;;;;;4.30;2.13;;;;;;;;;;4947917;29;20460;-64
2023/04/16 07:01:18;;;;;;;9.77;2.05;;;;;;;;;;4933089;29;20063;-64
2023/04/16 07:03:48;;;;;;;7.93;2.30;;;;;;;;;;4901372;29;20055;-63
2023/04/16 07:06:19;;;;;;;6.40;2.35;;;;;;;;;;4932756;29;20051;-64
2023/04/16 07:08:49;;;;;;;9.82;2.97;;;;;;;;;;4917015;29;20090;-64
2023/04/16 07:11:19;;;;;;;5.70;2.30;;;;;;;;;;4932783;29;20056;-64
2023/04/16 07:13:50;;;;;;;7.20;2.53;;;;;;;;;;4917035;29;20063;-66
2023/04/16 07:16:20;;;;;;;10.55;2.75;;;;;;;;;;4932564;29;20059;-64
2023/04/16 07:18:50;;;;;;;5.40;2.85;;;;;;;;;;4932550;29;20047;-63
2023/04/16 07:21:22;;;;;;;9.65;2.90;;;;;;;;;;4932580;29;20060;-64
2023/04/16 07:23:52;;;;;;;5.10;2.30;;;;;;;;;;4928830;29;20051;-64
2023/04/16 07:26:22;;;;;;;9.00;2.55;;;;;;;;;;4951502;29;20407;-64
2023/04/16 07:28:52;;;;;;;6.03;2.15;;;;;;;;;;4951406;29;20070;-64
2023/04/16 07:31:22;;;;;;;6.18;2.28;;;;;;;;;;4936165;29;20051;-64
2023/04/16 07:33:52;;;;;;;6.55;2.38;;;;;;;;;;4920706;29;20059;-64
2023/04/16 07:36:22;;;;;;;4.90;2.20;;;;;;;;;;4980262;28;20061;-64
2023/04/16 07:38:52;;;;;;;6.18;2.42;;;;;;;;;;5012055;28;20061;-64
2023/04/16 07:41:22;;;;;;;7.70;2.20;;;;;;;;;;5012019;28;20042;-64
2023/04/16 07:43:52;;;;;;;5.80;1.98;;;;;;;;;;4993306;28;20066;-64
2023/04/16 07:46:22;;;;;;;5.68;2.10;;;;;;;;;;4961299;28;20058;-65
2023/04/16 07:49:01;;;;;;;6.75;2.33;;;;;;;;;;5011668;28;20046;-65
2023/04/16 07:51:31;;;;;;;6.68;2.50;;;;;;;;;;5011901;28;20053;-64
2023/04/16 07:54:01;;;;;;;5.05;2.22;;;;;;;;;;5009601;28;20501;-64
2023/04/16 07:56:31;;;;;;;8.25;2.60;;;;;;;;;;5011536;28;20045;-65
2023/04/16 07:59:01;;;;;;;6.03;2.53;;;;;;;;;;4993554;28;20521;-63
2023/04/16 08:01:49;;;;;;;5.10;2.78;;;;;;;;;;5011673;28;20049;-65
2023/04/16 08:04:23;;;;;;;11.38;2.67;;;;;;;;;;4961093;28;20633;-64
2023/04/16 08:06:54;;;;;;;9.32;2.35;;;;;;;;;;5011449;28;20057;-64
2023/04/16 08:09:27;;;;;;;5.68;2.70;;;;;;;;;;4976981;28;21129;-64
2023/04/16 08:11:59;;;;;;;5.53;2.58;;;;;;;;;;4993027;28;20486;-66
2023/04/16 08:14:29;;;;;;;6.53;2.72;;;;;;;;;;4976746;28;20054;-64
2023/04/16 08:16:59;;;;;;;8.05;2.60;;;;;;;;;;4993157;28;20054;-64
2023/04/16 08:19:30;;;;;;;7.65;2.85;;;;;;;;;;4992192;28;20395;-64
2023/04/16 08:22:00;;;;;;;6.50;2.53;;;;;;;;;;5011793;28;20045;-64
2023/04/16 08:24:30;;;;;;;5.45;2.92;;;;;;;;;;5011561;28;20498;-64
2023/04/16 08:27:00;;;;;;;7.88;3.20;;;;;;;;;;4992619;28;20506;-64
2023/04/16 08:29:45;;;;;;;10.75;3.00;;;;;;;;;;5010958;28;20038;-64
2023/04/16 08:32:15;;;;;;;10.40;3.10;;;;;;;;;;5011322;28;20050;-64
2023/04/16 08:34:45;;;;;;;8.52;3.33;;;;;;;;;;5004469;28;20057;-64
2023/04/16 08:37:15;;;;;;;10.25;3.45;;;;;;;;;;4977056;28;20494;-64
2023/04/16 08:39:45;;;;;;;11.75;3.63;;;;;;;;;;5009036;28;20054;-64
2023/04/16 08:42:31;;;;;;;7.93;3.75;;;;;;;;;;4975673;28;20057;-64
2023/04/16 08:45:17;;;;;;;8.48;3.50;;;;;;;;;;4976293;28;20517;-66
2023/04/16 08:47:50;;;;;;;8.77;3.00;;;;;;;;;;5008392;28;20054;-64
2023/04/16 08:50:25;;;;;;;7.70;3.30;;;;;;;;;;4976198;28;20057;-66
2023/04/16 08:53:05;;;;;;;8.65;3.28;;;;;;;;;;5008359;28;20058;-64
2023/04/16 08:55:38;;;;;;;9.57;3.88;;;;;;;;;;4960088;28;20042;-64
2023/04/16 08:58:18;;;;;;;8.45;3.50;;;;;;;;;;5008371;28;20061;-64
2023/04/16 09:00:50;;;;;;;6.68;2.80;;;;;;;;;;4995596;28;20068;-64
2023/04/16 09:03:20;;;;;;;7.78;3.55;;;;;;;;;;5015892;28;20048;-64
2023/04/16 09:05:52;;;;;;;9.90;3.25;;;;;;;;;;5015087;28;20572;-65
2023/04/16 09:08:24;;;;;;;9.30;3.30;;;;;;;;;;4985144;28;20084;-64
2023/04/16 09:10:56;;;;;;;9.45;3.65;;;;;;;;;;4971619;28;20057;-65
2023/04/16 09:13:26;;;;;;;11.02;3.17;;;;;;;;;;4958535;28;20457;-64
2023/04/16 09:15:56;;;;;;;12.65;3.50;;;;;;;;;;5026887;28;20042;-63
2023/04/16 09:18:27;;;;;;;8.45;3.13;;;;;;;;;;5028012;28;20057;-63
2023/04/16 09:20:57;;;;;;;10.05;3.53;;;;;;;;;;5028274;28;20053;-63
2023/04/16 09:23:28;;;;;;;6.20;3.05;;;;;;;;;;5027991;28;20053;-64
2023/04/16 09:25:59;;;;;;;11.77;3.53;;;;;;;;;;5015447;28;20054;-64
2023/04/16 09:28:58;;;;;;;9.27;3.65;;;;;;;;;;5010788;28;20046;-64
2023/04/16 09:31:28;;;;;;;10.90;3.60;;;;;;;;;;4939379;28;20055;-63
2023/04/16 09:34:04;;;;;;;7.40;3.15;;;;;;;;;;4972972;28;20062;-64
2023/04/16 09:36:35;;;;;;;11.13;3.25;;;;;;;;;;4910331;28;20055;-63
2023/04/16 09:39:06;;;;;;;9.13;3.55;;;;;;;;;;4941498;28;20419;-62
2023/04/16 09:41:38;;;;;;;11.35;3.13;;;;;;;;;;4910202;28;20054;-63
2023/04/16 09:44:08;;;;;;;9.27;3.90;;;;;;;;;;4972515;28;20055;-64
2023/04/16 09:46:42;;;;;;;9.25;3.28;;;;;;;;;;4972459;28;20047;-63
2023/04/16 09:49:17;;;;;;;6.72;3.42;;;;;;;;;;4972581;28;20519;-63
2023/04/16 09:51:51;;;;;;;6.35;3.00;;;;;;;;;;4972252;28;20550;-63
2023/04/16 09:54:21;;;;;;;7.40;2.95;;;;;;;;;;4939884;28;20182;-65
2023/04/16 09:56:56;;;;;;;10.18;4.00;;;;;;;;;;4914261;29;20064;-63
2023/04/16 09:59:32;;;;;;;13.70;3.42;;;;;;;;;;4899119;29;20063;-66
2023/04/16 10:02:02;;;;;;;9.05;3.30;;;;;;;;;;4898902;29;20060;-62
2023/04/16 10:04:50;;;;;;;10.40;2.97;;;;;;;;;;4914833;29;20153;-63
2023/04/16 10:07:21;;;;;;;9.15;3.25;;;;;;;;;;4923130;29;20051;-62
2023/04/16 10:09:52;;;;;;;7.70;3.05;;;;;;;;;;4952626;29;20066;-64
2023/04/16 10:12:22;;;;;;;7.68;3.22;;;;;;;;;;4952847;29;20528;-63
2023/04/16 10:14:53;;;;;;;9.43;3.05;;;;;;;;;;4952976;29;20059;-62
2023/04/16 10:17:24;;;;;;;6.82;3.30;;;;;;;;;;4936462;29;20062;-62
2023/04/16 10:19:57;;;;;;;6.25;3.42;;;;;;;;;;4961710;28;20050;-65
2023/04/16 10:22:27;;;;;;;6.07;2.75;;;;;;;;;;4962781;28;20047;-63
2023/04/16 10:24:58;;;;;;;12.00;3.30;;;;;;;;;;4971277;28;20050;-63
2023/04/16 10:27:29;;;;;;;7.60;3.05;;;;;;;;;;4970471;28;20047;-64
2023/04/16 10:30:00;;;;;;;6.13;3.10;;;;;;;;;;4929539;28;20051;-64
2023/04/16 10:32:31;;;;;;;7.07;2.70;;;;;;;;;;4971796;28;20047;-63
2023/04/16 10:35:01;;;;;;;6.05;3.25;;;;;;;;;;4953427;28;20046;-63
2023/04/16 10:37:32;;;;;;;7.72;3.10;;;;;;;;;;4991061;28;20434;-63
2023/04/16 10:40:25;;;;;;;7.10;3.10;;;;;;;;;;4989945;28;20050;-63
2023/04/16 10:43:00;;;;;;;10.75;3.00;;;;;;;;;;4955341;28;20063;-64
2023/04/16 10:45:32;;;;;;;7.75;2.95;;;;;;;;;;4951695;29;20052;-63
2023/04/16 10:48:05;;;;;;;6.20;2.67;;;;;;;;;;4952048;29;20055;-63
2023/04/16 10:50:36;;;;;;;6.88;3.05;;;;;;;;;;4935890;29;20071;-63
2023/04/16 10:53:26;;;;;;;5.07;2.78;;;;;;;;;;4952196;29;20434;-63
2023/04/16 10:56:03;;;;;;;6.25;2.90;;;;;;;;;;4919707;29;20058;-64
2023/04/16 10:58:35;;;;;;;5.80;2.60;;;;;;;;;;4951927;29;20055;-64
2023/04/16 11:01:13;;;;;;;6.97;3.60;;;;;;;;;;4951847;29;20455;-63
2023/04/16 11:03:46;;;;;;;7.80;3.10;;;;;;;;;;4951874;28;20051;-64
2023/04/16 11:06:25;;;;;;;7.72;2.85;;;;;;;;;;4920887;29;20067;-63
2023/04/16 11:08:55;;;;;;;6.63;2.90;;;;;;;;;;4936537;29;20055;-63
2023/04/16 11:11:26;;;;;;;6.50;3.15;;;;;;;;;;4951750;29;20145;-62
2023/04/16 11:13:56;;;;;;;7.00;3.15;;;;;;;;;;4923194;28;20582;-63
2023/04/16 11:16:26;;;;;;;5.25;2.85;;;;;;;;;;4938531;28;20054;-62
2023/04/16 11:18:57;;;;;;;8.23;3.15;;;;;;;;;;4971064;28;20042;-64
2023/04/16 11:21:27;;;;;;;6.38;2.97;;;;;;;;;;4993368;28;20061;-63
2023/04/16 11:23:58;;;;;;;9.63;3.00;;;;;;;;;;4982330;28;20061;-63
2023/04/16 11:26:31;;;;;;;6.50;3.55;;;;;;;;;;5013206;28;20060;-63
2023/04/16 11:29:12;;;;;;;7.10;3.30;;;;;;;;;;5009662;28;20058;-63
2023/04/16 11:31:49;;;;;;;5.60;3.13;;;;;;;;;;5009679;28;20046;-63
2023/04/16 11:34:20;;;;;;;7.50;3.28;;;;;;;;;;5009551;28;20050;-63
2023/04/16 11:36:51;;;;;;;8.40;3.50;;;;;;;;;;4935150;29;20051;-63
2023/04/16 11:39:22;;;;;;;8.00;3.15;;;;;;;;;;4962914;28;20058;-64
2023/04/16 11:41:52;;;;;;;8.98;3.70;;;;;;;;;;4938841;28;20069;-64
2023/04/16 11:44:26;;;;;;;10.68;5.13;;;;;;;;;;4970356;28;20054;-64
2023/04/16 11:46:57;;;;;;;8.27;3.75;;;;;;;;;;4922750;28;20055;-63
2023/04/16 11:49:28;;;;;;;9.48;4.03;;;;;;;;;;4969419;28;20053;-64
2023/04/16 11:51:59;;;;;;;7.75;3.95;;;;;;;;;;4931235;29;20058;-63
2023/04/16 11:54:33;;;;;;;6.28;3.38;;;;;;;;;;4931163;29;20053;-63
2023/04/16 11:57:05;;;;;;;4.68;2.50;;;;;;;;;;4931605;29;20563;-64
2023/04/16 11:59:35;;;;;;;6.15;2.60;;;;;;;;;;4912192;29;20052;-64
2023/04/16 12:02:35;;;;;;;6.53;3.10;;;;;;;;;;4912685;29;20467;-63
2023/04/16 12:05:27;;;;;;;8.95;4.03;;;;;;;;;;4881344;29;20056;-64
2023/04/16 12:08:01;;;;;;;6.93;2.78;;;;;;;;;;4874739;29;20073;-65
2023/04/16 12:10:36;;;;;;;5.05;2.25;;;;;;;;;;4875079;29;20049;-63
2023/04/16 12:13:16;;;;;;;5.25;2.28;;;;;;;;;;4859180;29;20057;-64
2023/04/16 12:15:54;;;;;;;5.22;2.50;;;;;;;;;;4908597;29;20087;-64
2023/04/16 12:18:28;;;;;;;6.43;2.55;;;;;;;;;;4880911;29;20064;-64
2023/04/16 12:20:58;;;;;;;3.50;1.70;;;;;;;;;;4893448;29;20140;-64
2023/04/16 12:23:30;;;;;;;3.35;1.70;;;;;;;;;;4896860;29;20059;-65
2023/04/16 12:26:09;;;;;;;;;;;;;;;;;;4912716;29;20091;-64
2023/04/16 12:28:40;;;;;;;4.97;2.35;;;;;;;;;;4912279;29;19960;-64
2023/04/16 12:31:10;;;;;;;5.05;1.42;;;;;;;;;;4896957;29;20052;-64
2023/04/16 12:33:41;;;;;;;7.53;1.60;;;;;;;;;;4880714;29;20060;-63
2023/04/16 12:36:18;;;;;;;3.08;1.90;;;;;;;;;;4896296;29;20113;-63
2023/04/16 12:38:48;;;;;;;2.80;1.60;;;;;;;;;;4858870;29;20064;-65
2023/04/16 12:41:18;;;;;;;3.05;1.80;;;;;;;;;;4875018;29;20060;-65
2023/04/16 12:43:49;;;;;;;3.85;1.45;;;;;;;;;;4858868;29;20049;-64
2023/04/16 12:46:20;;;;;;;5.18;1.20;;;;;;;;;;4914153;29;20063;-63
2023/04/16 12:48:50;;;;;;;2.35;1.30;;;;;;;;;;4931192;29;20059;-64
2023/04/16 12:51:22;;;;;;;4.10;1.35;;;;;;;;;;4899591;29;20063;-64
2023/04/16 12:53:52;;;;;;;3.08;1.30;;;;;;;;;;4931260;29;20495;-65
2023/04/16 12:56:22;;;;;;;2.97;1.10;;;;;;;;;;4931066;29;20432;-64
2023/04/16 12:58:53;;;;;;;2.33;1.20;;;;;;;;;;4954300;28;20054;-64
2023/04/16 13:01:24;;;;;;;2.03;1.10;;;;;;;;;;4938058;28;20058;-64
2023/04/16 13:03:54;;;;;;;2.58;0.93;;;;;;;;;;4938019;28;20151;-64
2023/04/16 13:06:25;;;;;;;3.42;1.10;;;;;;;;;;4973294;28;20062;-64
2023/04/16 13:08:55;;;;;;;3.40;1.50;;;;;;;;;;4940858;28;20066;-64
2023/04/16 13:11:26;;;;;;;1.92;1.10;;;;;;;;;;4973280;28;20066;-64
2023/04/16 13:13:58;;;;;;;3.20;1.20;;;;;;;;;;4942168;28;20105;-64
2023/04/16 13:16:28;;;;;;;2.67;1.00;;;;;;;;;;4987013;28;20520;-64
2023/04/16 13:18:58;;;;;;;1.95;1.23;;;;;;;;;;5034364;28;20050;-64
2023/04/16 13:21:28;;;;;;;4.28;2.30;;;;;;;;;;5015845;28;20065;-64
2023/04/16 13:23:59;;;;;;;3.67;1.65;;;;;;;;;;4999036;28;20405;-65
2023/04/16 13:26:29;;;;;;;1.60;1.10;;;;;;;;;;5034101;28;20037;-64
2023/04/16 13:28:59;;;;;;;2.72;1.30;;;;;;;;;;5034000;28;20046;-64
2023/04/16 13:31:29;;;;;;;1.65;1.00;;;;;;;;;;4999313;28;20049;-64
2023/04/16 13:34:02;;;;;;;2.50;1.30;;;;;;;;;;5034224;28;20386;-64
2023/04/16 13:36:34;;;;;;;2.38;0.88;;;;;;;;;;4999439;28;20053;-64
2023/04/16 13:39:09;;;;;;;2.20;1.10;;;;;;;;;;4968334;28;20057;-63
2023/04/16 13:41:40;;;;;;;3.13;1.20;;;;;;;;;;5015340;28;20549;-64
2023/04/16 13:44:10;;;;;;;2.25;1.40;;;;;;;;;;5033890;28;20052;-64
2023/04/16 13:46:42;;;;;;;3.22;1.50;;;;;;;;;;5033830;28;20045;-64
2023/04/16 13:49:13;;;;;;;2.75;1.27;;;;;;;;;;4998927;28;20391;-64
2023/04/16 13:51:43;;;;;;;3.38;1.70;;;;;;;;;;5033763;28;20057;-64
2023/04/16 13:54:13;;;;;;;4.90;1.60;;;;;;;;;;4975295;28;20058;-63
2023/04/16 13:56:43;;;;;;;3.63;1.52;;;;;;;;;;4991865;28;20169;-63
2023/04/16 13:59:14;;;;;;;3.33;1.08;;;;;;;;;;4972454;28;20419;-63
2023/04/16 14:01:44;;;;;;;3.92;1.40;;;;;;;;;;4956080;28;20047;-63
2023/04/16 14:04:15;;;;;;;2.35;1.20;;;;;;;;;;4940064;28;20050;-65
2023/04/16 14:06:49;;;;;;;2.83;1.45;;;;;;;;;;4941126;28;20458;-64
2023/04/16 14:09:20;;;;;;;2.63;1.38;;;;;;;;;;4971994;28;20051;-64
2023/04/16 14:11:50;;;;;;;3.08;1.02;;;;;;;;;;4972233;28;20055;-64
2023/04/16 14:14:20;;;;;;;2.95;1.10;;;;;;;;;;4908119;28;20565;-63
2023/04/16 14:16:50;;;;;;;2.20;1.20;;;;;;;;;;4923269;28;20446;-63
2023/04/16 14:19:20;;;;;;;2.60;1.10;;;;;;;;;;4924052;28;20054;-63
2023/04/16 14:21:51;;;;;;;3.53;1.40;;;;;;;;;;4923621;28;20050;-65
2023/04/16 14:24:21;;;;;;;2.17;1.10;;;;;;;;;;4971994;28;20050;-63
2023/04/16 14:26:51;;;;;;;3.38;1.50;;;;;;;;;;4924235;28;20055;-64
2023/04/16 14:29:21;;;;;;;3.75;1.48;;;;;;;;;;4939582;28;20055;-64
2023/04/16 14:31:51;;;;;;;4.13;1.90;;;;;;;;;;4920644;28;20448;-63
2023/04/16 14:34:21;;;;;;;3.47;1.58;;;;;;;;;;4923309;28;20051;-64
2023/04/16 14:36:52;;;;;;;2.65;1.30;;;;;;;;;;4971792;28;20062;-64
2023/04/16 14:39:23;;;;;;;2.30;1.33;;;;;;;;;;4971787;28;20059;-63
2023/04/16 14:41:54;;;;;;;3.85;1.42;;;;;;;;;;4971730;28;20059;-63
2023/04/16 14:44:24;;;;;;;3.35;1.70;;;;;;;;;;4971680;28;20059;-64
2023/04/16 14:46:54;;;;;;;4.38;1.63;;;;;;;;;;4932802;29;20047;-63
2023/04/16 14:49:25;;;;;;;4.13;1.60;;;;;;;;;;4917326;29;20846;-63
2023/04/16 14:51:56;;;;;;;2.65;1.50;;;;;;;;;;4917564;29;20539;-64
2023/04/16 14:54:26;;;;;;;3.50;1.40;;;;;;;;;;4932829;29;20523;-64
2023/04/16 14:56:57;;;;;;;2.72;1.60;;;;;;;;;;4932847;29;20196;-66
2023/04/16 14:59:27;;;;;;;3.15;1.63;;;;;;;;;;4932719;29;20047;-66
2023/04/16 15:01:58;;;;;;;4.70;1.80;;;;;;;;;;4863647;29;20057;-64
2023/04/16 15:04:29;;;;;;;2.95;1.63;;;;;;;;;;4896710;29;20152;-63
2023/04/16 15:07:00;;;;;;;3.65;1.80;;;;;;;;;;4882380;29;20209;-65
2023/04/16 15:09:31;;;;;;;2.97;1.90;;;;;;;;;;4898717;29;20416;-65